Time,TemperatureF,DewpointF,PressureIn,WindDirection,WindDirectionDegrees,WindSpeedMPH,WindSpeedGustMPH,Humidity,HourlyPrecipIn,Conditions,Clouds,dailyrainin,SoftwareType,DateUTC
2013-11-19 00:00:00,43.4,30.5,30.10,ENE,69,0.0,2.0,60,0.00,,CLR,0.00,VWS V14.01,2013-11-19 06:00:00,
2013-11-19 00:03:00,43.2,29.9,30.10,ENE,65,0.0,0.0,59,0.00,,CLR,0.00,VWS V14.01,2013-11-19 06:03:00,
2013-11-19 00:08:00,43.1,29.8,30.10,ENE,57,0.0,1.0,59,0.00,,CLR,0.00,VWS V14.01,2013-11-19 06:08:00,
2013-11-19 00:13:00,42.9,30.0,30.09,ENE,70,0.0,3.0,60,0.00,,CLR,0.00,VWS V14.01,2013-11-19 06:13:00,
2013-11-19 00:18:00,42.8,29.9,30.09,North,5,0.0,3.0,60,0.00,,CLR,0.00,VWS V14.01,2013-11-19 06:18:00,
2013-11-19 00:23:00,42.5,29.6,30.09,NW,323,0.0,3.0,60,0.00,,CLR,0.00,VWS V14.01,2013-11-19 06:23:00,
2013-11-19 00:28:00,42.3,29.4,30.09,East,101,0.0,3.0,60,0.00,,CLR,0.00,VWS V14.01,2013-11-19 06:28:00,
2013-11-19 00:30:00,42.3,29.4,30.09,ESE,108,0.0,3.0,60,0.00,,CLR,0.00,VWS V14.01,2013-11-19 06:30:00,
2013-11-19 00:33:00,42.2,29.3,30.08,NNE,24,0.0,3.0,60,0.00,,CLR,0.00,VWS V14.01,2013-11-19 06:33:00,
2013-11-19 00:38:00,42.3,29.0,30.08,North,9,0.0,3.0,59,0.00,,CLR,0.00,VWS V14.01,2013-11-19 06:38:00,
2013-11-19 00:43:00,42.0,29.9,30.08,NNE,24,0.0,3.0,62,0.00,,CLR,0.00,VWS V14.01,2013-11-19 06:43:00,
2013-11-19 00:48:00,41.8,29.8,30.08,NNE,30,0.0,3.0,62,0.00,,CLR,0.00,VWS V14.01,2013-11-19 06:48:00,
2013-11-19 00:53:00,41.7,29.7,30.08,NNE,19,1.0,3.0,62,0.00,,CLR,0.00,VWS V14.01,2013-11-19 06:53:00,
2013-11-19 00:59:00,41.6,30.0,30.08,North,355,0.0,3.0,63,0.00,,CLR,0.00,VWS V14.01,2013-11-19 06:59:00,
2013-11-19 01:00:00,41.6,29.6,30.08,North,355,0.0,3.0,62,0.00,,CLR,0.00,VWS V14.01,2013-11-19 07:00:00,
2013-11-19 01:04:00,41.5,29.9,30.08,NNW,348,0.0,0.0,63,0.00,,CLR,0.00,VWS V14.01,2013-11-19 07:04:00,
2013-11-19 01:09:00,41.3,29.7,30.08,NNW,329,0.0,0.0,63,0.00,,CLR,0.00,VWS V14.01,2013-11-19 07:09:00,
2013-11-19 01:14:00,41.2,29.2,30.08,NNW,329,0.0,0.0,62,0.00,,CLR,0.00,VWS V14.01,2013-11-19 07:14:00,
2013-11-19 01:19:00,41.1,29.5,30.08,NNW,329,0.0,0.0,63,0.00,,CLR,0.00,VWS V14.01,2013-11-19 07:19:00,
2013-11-19 01:24:00,41.1,29.5,30.08,NNW,329,0.0,0.0,63,0.00,,CLR,0.00,VWS V14.01,2013-11-19 07:24:00,
2013-11-19 01:29:00,41.0,29.4,30.08,NNW,329,0.0,0.0,63,0.00,,CLR,0.00,VWS V14.01,2013-11-19 07:29:00,
2013-11-19 01:30:00,41.0,29.4,30.08,NNW,329,0.0,0.0,63,0.00,,CLR,0.00,VWS V14.01,2013-11-19 07:30:00,
2013-11-19 01:34:00,40.8,29.6,30.08,NNW,329,0.0,0.0,64,0.00,,CLR,0.00,VWS V14.01,2013-11-19 07:34:00,
2013-11-19 01:39:00,40.6,29.8,30.08,NNW,329,0.0,0.0,65,0.00,,CLR,0.00,VWS V14.01,2013-11-19 07:39:00,
2013-11-19 01:44:00,40.3,29.9,30.08,NW,317,0.0,0.0,66,0.00,,CLR,0.00,VWS V14.01,2013-11-19 07:44:00,
2013-11-19 01:49:00,40.1,29.7,30.08,NW,315,0.0,0.0,66,0.00,,CLR,0.00,VWS V14.01,2013-11-19 07:49:00,
2013-11-19 01:54:00,40.0,29.9,30.08,NW,309,0.0,0.0,67,0.00,,CLR,0.00,VWS V14.01,2013-11-19 07:54:00,
2013-11-19 01:59:00,40.0,29.2,30.08,NW,309,0.0,0.0,65,0.00,,CLR,0.00,VWS V14.01,2013-11-19 07:59:00,
2013-11-19 02:00:00,40.0,29.2,30.08,NW,309,0.0,0.0,65,0.00,,CLR,0.00,VWS V14.01,2013-11-19 08:00:00,
2013-11-19 02:05:00,40.1,29.7,30.08,NW,309,0.0,0.0,66,0.00,,CLR,0.00,VWS V14.01,2013-11-19 08:05:00,
2013-11-19 02:10:00,40.0,29.2,30.08,NW,309,0.0,0.0,65,0.00,,CLR,0.00,VWS V14.01,2013-11-19 08:10:00,
2013-11-19 02:15:00,40.0,29.2,30.08,NW,309,0.0,0.0,65,0.00,,CLR,0.00,VWS V14.01,2013-11-19 08:15:00,
2013-11-19 02:20:00,39.9,28.7,30.08,NW,309,0.0,0.0,64,0.00,,CLR,0.00,VWS V14.01,2013-11-19 08:20:00,
2013-11-19 02:25:00,39.9,28.3,30.09,NW,309,0.0,0.0,63,0.00,,CLR,0.00,VWS V14.01,2013-11-19 08:25:00,
2013-11-19 02:30:00,40.0,28.4,30.09,NW,309,0.0,0.0,63,0.00,,CLR,0.00,VWS V14.01,2013-11-19 08:30:00,
2013-11-19 02:35:00,40.2,28.2,30.09,NW,309,0.0,0.0,62,0.00,,CLR,0.00,VWS V14.01,2013-11-19 08:35:00,
2013-11-19 02:40:00,40.4,28.8,30.09,NW,309,0.0,0.0,63,0.00,,CLR,0.00,VWS V14.01,2013-11-19 08:40:00,
2013-11-19 02:45:00,40.5,28.9,30.09,NW,309,0.0,0.0,63,0.00,,CLR,0.00,VWS V14.01,2013-11-19 08:45:00,
2013-11-19 02:50:00,40.5,29.7,30.09,NW,309,0.0,0.0,65,0.00,,CLR,0.00,VWS V14.01,2013-11-19 08:50:00,
2013-11-19 02:55:00,40.3,28.7,30.09,NW,309,0.0,0.0,63,0.00,,CLR,0.00,VWS V14.01,2013-11-19 08:55:00,
2013-11-19 03:00:00,40.0,28.8,30.09,NW,309,0.0,0.0,64,0.00,,CLR,0.00,VWS V14.01,2013-11-19 09:00:00,
2013-11-19 03:05:00,39.9,28.7,30.09,NW,309,0.0,0.0,64,0.00,,CLR,0.00,VWS V14.01,2013-11-19 09:05:00,
2013-11-19 03:11:00,39.8,28.6,30.09,NW,309,0.0,0.0,64,0.00,,CLR,0.00,VWS V14.01,2013-11-19 09:11:00,
2013-11-19 03:16:00,39.8,28.2,30.09,NW,309,0.0,0.0,63,0.00,,CLR,0.00,VWS V14.01,2013-11-19 09:16:00,
2013-11-19 03:21:00,39.7,28.9,30.10,NW,309,0.0,0.0,65,0.00,,CLR,0.00,VWS V14.01,2013-11-19 09:21:00,
2013-11-19 03:26:00,39.6,28.8,30.09,NW,309,0.0,0.0,65,0.00,,CLR,0.00,VWS V14.01,2013-11-19 09:26:00,
2013-11-19 03:30:00,39.6,29.2,30.09,NW,309,0.0,0.0,66,0.00,,CLR,0.00,VWS V14.01,2013-11-19 09:30:00,
2013-11-19 03:31:00,39.5,29.5,30.09,NW,309,0.0,0.0,67,0.00,,CLR,0.00,VWS V14.01,2013-11-19 09:31:00,
2013-11-19 03:36:00,39.4,29.4,30.09,NW,309,0.0,0.0,67,0.00,,CLR,0.00,VWS V14.01,2013-11-19 09:36:00,
2013-11-19 03:41:00,39.4,29.4,30.09,NW,309,0.0,0.0,67,0.00,,CLR,0.00,VWS V14.01,2013-11-19 09:41:00,
2013-11-19 03:46:00,39.3,29.3,30.09,NW,309,0.0,0.0,67,0.00,,CLR,0.00,VWS V14.01,2013-11-19 09:46:00,
2013-11-19 03:51:00,39.4,28.6,30.08,NW,309,0.0,0.0,65,0.00,,CLR,0.00,VWS V14.01,2013-11-19 09:51:00,
2013-11-19 03:56:00,39.5,28.7,30.08,NW,309,0.0,0.0,65,0.00,,CLR,0.00,VWS V14.01,2013-11-19 09:56:00,
2013-11-19 04:00:00,39.6,28.4,30.08,NW,309,0.0,0.0,64,0.00,,CLR,0.00,VWS V14.01,2013-11-19 10:00:00,
2013-11-19 04:01:00,39.6,28.4,30.08,NW,309,0.0,0.0,64,0.00,,CLR,0.00,VWS V14.01,2013-11-19 10:01:00,
2013-11-19 04:06:00,39.6,28.4,30.09,NW,309,0.0,0.0,64,0.00,,CLR,0.00,VWS V14.01,2013-11-19 10:06:00,
2013-11-19 04:12:00,39.7,27.8,30.09,NW,309,0.0,0.0,62,0.00,,CLR,0.00,VWS V14.01,2013-11-19 10:12:00,
2013-11-19 04:17:00,39.7,28.1,30.09,NNW,336,0.0,1.0,63,0.00,,CLR,0.00,VWS V14.01,2013-11-19 10:17:00,
2013-11-19 04:22:00,39.7,27.8,30.09,NNW,335,0.0,1.0,62,0.00,,CLR,0.00,VWS V14.01,2013-11-19 10:22:00,
2013-11-19 04:27:00,39.7,27.8,30.10,NNW,335,0.0,1.0,62,0.00,,CLR,0.00,VWS V14.01,2013-11-19 10:27:00,
2013-11-19 04:30:00,39.7,27.8,30.10,NNW,336,0.0,1.0,62,0.00,,CLR,0.00,VWS V14.01,2013-11-19 10:30:00,
2013-11-19 04:32:00,39.6,28.4,30.10,NNW,335,0.0,0.0,64,0.00,,CLR,0.00,VWS V14.01,2013-11-19 10:32:00,
2013-11-19 04:37:00,39.4,28.6,30.10,NNW,336,0.0,0.0,65,0.00,,CLR,0.00,VWS V14.01,2013-11-19 10:37:00,
2013-11-19 04:42:00,39.0,28.6,30.11,NNW,336,0.0,0.0,66,0.00,,CLR,0.00,VWS V14.01,2013-11-19 10:42:00,
2013-11-19 04:47:00,38.7,28.7,30.10,NNW,335,0.0,0.0,67,0.00,,CLR,0.00,VWS V14.01,2013-11-19 10:47:00,
2013-11-19 04:52:00,38.4,28.0,30.10,NNW,335,0.0,0.0,66,0.00,,CLR,0.00,VWS V14.01,2013-11-19 10:52:00,
2013-11-19 04:57:00,38.2,28.2,30.10,NNW,336,0.0,0.0,67,0.00,,CLR,0.00,VWS V14.01,2013-11-19 10:57:00,
2013-11-19 05:00:00,38.2,28.6,30.10,NNW,336,0.0,0.0,68,0.00,,CLR,0.00,VWS V14.01,2013-11-19 11:00:00,
2013-11-19 05:02:00,38.0,28.8,30.11,NNW,335,0.0,0.0,69,0.00,,CLR,0.00,VWS V14.01,2013-11-19 11:02:00,
2013-11-19 05:07:00,37.8,28.2,30.11,NNW,335,0.0,0.0,68,0.00,,CLR,0.00,VWS V14.01,2013-11-19 11:07:00,
2013-11-19 05:12:00,37.6,28.4,30.11,NNW,336,0.0,0.0,69,0.00,,CLR,0.00,VWS V14.01,2013-11-19 11:12:00,
2013-11-19 05:17:00,37.4,28.5,30.11,NNW,335,0.0,0.0,70,0.00,,CLR,0.00,VWS V14.01,2013-11-19 11:17:00,
2013-11-19 05:23:00,37.2,28.3,30.11,NNW,335,0.0,0.0,70,0.00,,CLR,0.00,VWS V14.01,2013-11-19 11:23:00,
2013-11-19 05:28:00,37.1,27.9,30.11,NNW,335,0.0,0.0,69,0.00,,CLR,0.00,VWS V14.01,2013-11-19 11:28:00,
2013-11-19 05:30:00,37.1,27.9,30.10,NNW,335,0.0,0.0,69,0.00,,CLR,0.00,VWS V14.01,2013-11-19 11:30:00,
2013-11-19 05:33:00,37.2,28.3,30.11,NNW,335,0.0,0.0,70,0.00,,CLR,0.00,VWS V14.01,2013-11-19 11:33:00,
2013-11-19 05:38:00,37.3,28.4,30.11,NNW,335,0.0,0.0,70,0.00,,CLR,0.00,VWS V14.01,2013-11-19 11:38:00,
2013-11-19 05:43:00,37.1,28.6,30.11,NNW,336,0.0,0.0,71,0.00,,CLR,0.00,VWS V14.01,2013-11-19 11:43:00,
2013-11-19 05:48:00,37.0,28.1,30.11,NNW,335,0.0,0.0,70,0.00,,CLR,0.00,VWS V14.01,2013-11-19 11:48:00,
2013-11-19 05:53:00,36.9,28.0,30.11,NNW,336,0.0,0.0,70,0.00,,CLR,0.00,VWS V14.01,2013-11-19 11:53:00,
2013-11-19 05:58:00,36.9,28.4,30.11,NNW,335,0.0,0.0,71,0.00,,CLR,0.00,VWS V14.01,2013-11-19 11:58:00,
2013-11-19 06:00:00,36.9,28.4,30.11,NNW,336,0.0,0.0,71,0.00,,CLR,0.00,VWS V14.01,2013-11-19 12:00:00,
2013-11-19 06:03:00,36.9,28.4,30.11,NNW,335,0.0,0.0,71,0.00,,CLR,0.00,VWS V14.01,2013-11-19 12:03:00,
2013-11-19 06:08:00,36.8,28.6,30.11,NNW,336,0.0,0.0,72,0.00,,CLR,0.00,VWS V14.01,2013-11-19 12:08:00,
2013-11-19 06:13:00,36.7,28.5,30.12,NNW,331,0.0,1.0,72,0.00,,CLR,0.00,VWS V14.01,2013-11-19 12:13:00,
2013-11-19 06:18:00,36.8,28.3,30.11,NNW,331,0.0,1.0,71,0.00,,CLR,0.00,VWS V14.01,2013-11-19 12:18:00,
2013-11-19 06:24:00,36.9,28.7,30.11,NNW,331,0.0,1.0,72,0.00,,CLR,0.00,VWS V14.01,2013-11-19 12:24:00,
2013-11-19 06:29:00,36.8,28.3,30.11,NNW,331,0.0,1.0,71,0.00,,CLR,0.00,VWS V14.01,2013-11-19 12:29:00,
2013-11-19 06:30:00,36.8,28.3,30.11,NNW,331,0.0,1.0,71,0.00,,CLR,0.00,VWS V14.01,2013-11-19 12:30:00,
2013-11-19 06:34:00,36.9,27.7,30.11,NNW,331,0.0,0.0,69,0.00,,CLR,0.00,VWS V14.01,2013-11-19 12:34:00,
2013-11-19 06:39:00,37.0,27.4,30.12,NNW,331,1.0,1.0,68,0.00,,CLR,0.00,VWS V14.01,2013-11-19 12:39:00,
2013-11-19 06:44:00,37.2,27.6,30.12,NNW,332,1.0,1.0,68,0.00,,CLR,0.00,VWS V14.01,2013-11-19 12:44:00,
2013-11-19 06:49:00,37.3,28.1,30.12,NNW,331,0.0,1.0,69,0.00,,CLR,0.00,VWS V14.01,2013-11-19 12:49:00,
2013-11-19 06:54:00,37.3,27.7,30.12,NNW,331,0.0,1.0,68,0.00,,CLR,0.00,VWS V14.01,2013-11-19 12:54:00,
2013-11-19 06:59:00,37.3,28.1,30.12,NNW,331,0.0,0.0,69,0.00,,CLR,0.00,VWS V14.01,2013-11-19 12:59:00,
2013-11-19 07:00:00,37.3,28.1,30.12,NNW,331,0.0,1.0,69,0.00,,CLR,0.00,VWS V14.01,2013-11-19 13:00:00,
2013-11-19 07:04:00,37.2,27.6,30.12,NNW,331,0.0,0.0,68,0.00,,CLR,0.00,VWS V14.01,2013-11-19 13:04:00,
2013-11-19 07:09:00,37.2,28.0,30.12,NNW,331,0.0,0.0,69,0.00,,CLR,0.00,VWS V14.01,2013-11-19 13:09:00,
2013-11-19 07:14:00,37.3,28.1,30.12,North,349,0.0,0.0,69,0.00,,CLR,0.00,VWS V14.01,2013-11-19 13:14:00,
2013-11-19 07:19:00,37.4,28.5,30.12,ENE,70,0.0,1.0,70,0.00,,CLR,0.00,VWS V14.01,2013-11-19 13:19:00,
2013-11-19 07:24:00,37.6,29.1,30.13,East,90,0.0,2.0,71,0.00,,CLR,0.00,VWS V14.01,2013-11-19 13:24:00,
2013-11-19 07:30:00,37.6,28.7,30.13,East,90,0.0,0.0,70,0.00,,CLR,0.00,VWS V14.01,2013-11-19 13:30:00,
2013-11-19 07:35:00,37.7,29.2,30.13,East,90,0.0,0.0,71,0.00,,CLR,0.00,VWS V14.01,2013-11-19 13:35:00,
2013-11-19 07:40:00,37.8,29.6,30.13,East,90,0.0,0.0,72,0.00,,CLR,0.00,VWS V14.01,2013-11-19 13:40:00,
2013-11-19 07:45:00,38.0,29.8,30.13,East,90,0.0,1.0,72,0.00,,CLR,0.00,VWS V14.01,2013-11-19 13:45:00,
2013-11-19 07:50:00,38.3,30.4,30.13,East,90,0.0,1.0,73,0.00,,CLR,0.00,VWS V14.01,2013-11-19 13:50:00,
2013-11-19 07:55:00,38.8,30.6,30.13,East,90,0.0,1.0,72,0.00,,CLR,0.00,VWS V14.01,2013-11-19 13:55:00,
2013-11-19 08:00:00,39.4,31.1,30.13,East,90,0.0,0.0,72,0.00,,CLR,0.00,VWS V14.01,2013-11-19 14:00:00,
2013-11-19 08:05:00,39.8,30.8,30.14,ESE,123,0.0,2.0,70,0.00,,CLR,0.00,VWS V14.01,2013-11-19 14:05:00,
2013-11-19 08:10:00,40.2,31.6,30.14,ESE,113,0.0,2.0,71,0.00,,CLR,0.00,VWS V14.01,2013-11-19 14:10:00,
2013-11-19 08:15:00,40.5,32.2,30.14,ESE,123,1.0,2.0,72,0.00,,CLR,0.00,VWS V14.01,2013-11-19 14:15:00,
2013-11-19 08:20:00,40.7,32.4,30.14,ESE,119,0.0,3.0,72,0.00,,CLR,0.00,VWS V14.01,2013-11-19 14:20:00,
2013-11-19 08:25:00,41.1,33.1,30.14,ESE,119,2.0,3.0,73,0.00,,CLR,0.00,VWS V14.01,2013-11-19 14:25:00,
2013-11-19 08:29:00,41.4,33.1,30.14,ESE,123,1.0,3.0,72,0.00,,CLR,0.00,VWS V14.01,2013-11-19 14:29:00,
2013-11-19 08:30:00,41.4,33.1,30.14,ESE,123,1.0,3.0,72,0.00,,CLR,0.00,VWS V14.01,2013-11-19 14:30:00,
2013-11-19 08:34:00,41.8,33.1,30.14,ESE,109,2.0,4.0,71,0.00,,CLR,0.00,VWS V14.01,2013-11-19 14:34:00,
2013-11-19 08:39:00,42.2,33.1,30.14,ESE,117,3.0,4.0,70,0.00,,CLR,0.00,VWS V14.01,2013-11-19 14:39:00,
2013-11-19 08:44:00,42.7,33.2,30.14,SE,136,2.0,7.0,69,0.00,,CLR,0.00,VWS V14.01,2013-11-19 14:44:00,
2013-11-19 08:49:00,43.1,33.3,30.14,SE,130,2.0,7.0,68,0.00,,CLR,0.00,VWS V14.01,2013-11-19 14:49:00,
2013-11-19 08:54:00,43.5,33.3,30.14,ESE,123,0.0,7.0,67,0.00,,CLR,0.00,VWS V14.01,2013-11-19 14:54:00,
2013-11-19 08:59:00,43.9,32.9,30.14,SE,125,4.0,4.0,65,0.00,,CLR,0.00,VWS V14.01,2013-11-19 14:59:00,
2013-11-19 09:00:00,43.9,32.9,30.14,SE,136,2.0,7.0,65,0.00,,CLR,0.00,VWS V14.01,2013-11-19 15:00:00,
2013-11-19 09:04:00,44.3,32.1,30.14,ESE,110,4.0,6.0,62,0.00,,CLR,0.00,VWS V14.01,2013-11-19 15:04:00,
2013-11-19 09:09:00,44.8,32.6,30.14,SE,140,0.0,7.0,62,0.00,,CLR,0.00,VWS V14.01,2013-11-19 15:09:00,
2013-11-19 09:14:00,45.1,32.5,30.14,ESE,113,3.0,7.0,61,0.00,,CLR,0.00,VWS V14.01,2013-11-19 15:14:00,
2013-11-19 09:20:00,45.2,32.6,30.14,SE,134,2.0,8.0,61,0.00,,CLR,0.00,VWS V14.01,2013-11-19 15:20:00,
2013-11-19 09:25:00,45.4,32.8,30.14,ESE,119,2.0,8.0,61,0.00,,CLR,0.00,VWS V14.01,2013-11-19 15:25:00,
2013-11-19 09:30:00,45.6,32.9,30.14,ESE,103,2.0,7.0,61,0.00,,CLR,0.00,VWS V14.01,2013-11-19 15:30:00,
2013-11-19 09:35:00,45.8,32.3,30.14,ESE,122,2.0,7.0,59,0.00,,CLR,0.00,VWS V14.01,2013-11-19 15:35:00,
2013-11-19 09:40:00,46.0,32.1,30.14,ESE,117,4.0,9.0,58,0.00,,CLR,0.00,VWS V14.01,2013-11-19 15:40:00,
2013-11-19 09:45:00,46.2,32.2,30.14,ESE,106,3.0,9.0,58,0.00,,CLR,0.00,VWS V14.01,2013-11-19 15:45:00,
2013-11-19 09:50:00,46.4,32.9,30.14,ESE,119,1.0,9.0,59,0.00,,CLR,0.00,VWS V14.01,2013-11-19 15:50:00,
2013-11-19 09:55:00,46.8,32.8,30.14,SE,128,1.0,9.0,58,0.00,,CLR,0.00,VWS V14.01,2013-11-19 15:55:00,
2013-11-19 10:00:00,47.2,32.3,30.14,SSE,167,3.0,5.0,56,0.00,,CLR,0.00,VWS V14.01,2013-11-19 16:00:00,
2013-11-19 10:05:00,47.3,31.5,30.14,South,169,2.0,5.0,54,0.00,,CLR,0.00,VWS V14.01,2013-11-19 16:05:00,
2013-11-19 10:10:00,47.4,31.6,30.14,ESE,103,4.0,5.0,54,0.00,,CLR,0.00,VWS V14.01,2013-11-19 16:10:00,
2013-11-19 10:15:00,47.4,31.6,30.14,East,95,1.0,5.0,54,0.00,,CLR,0.00,VWS V14.01,2013-11-19 16:15:00,
2013-11-19 10:21:00,47.7,32.3,30.14,ESE,123,1.0,5.0,55,0.00,,CLR,0.00,VWS V14.01,2013-11-19 16:21:00,
2013-11-19 10:26:00,48.3,32.4,30.14,SE,127,0.0,5.0,54,0.00,,CLR,0.00,VWS V14.01,2013-11-19 16:26:00,
2013-11-19 10:30:00,48.7,31.9,30.14,ESE,111,3.0,7.0,52,0.00,,CLR,0.00,VWS V14.01,2013-11-19 16:30:00,
2013-11-19 10:31:00,48.8,32.0,30.14,East,97,3.0,6.0,52,0.00,,CLR,0.00,VWS V14.01,2013-11-19 16:31:00,
2013-11-19 10:36:00,49.0,31.7,30.14,SSE,161,1.0,8.0,51,0.00,,CLR,0.00,VWS V14.01,2013-11-19 16:36:00,
2013-11-19 10:41:00,49.0,31.7,30.13,SE,127,3.0,8.0,51,0.00,,CLR,0.00,VWS V14.01,2013-11-19 16:41:00,
2013-11-19 10:46:00,48.8,31.0,30.14,SSE,157,3.0,8.0,50,0.00,,CLR,0.00,VWS V14.01,2013-11-19 16:46:00,
2013-11-19 10:51:00,48.6,31.3,30.13,ESE,122,2.0,8.0,51,0.00,,CLR,0.00,VWS V14.01,2013-11-19 16:51:00,
2013-11-19 10:56:00,48.6,31.3,30.13,SE,143,4.0,8.0,51,0.00,,CLR,0.00,VWS V14.01,2013-11-19 16:56:00,
2013-11-19 11:00:00,48.5,30.7,30.13,ESE,116,2.0,8.0,50,0.00,,CLR,0.00,VWS V14.01,2013-11-19 17:00:00,
2013-11-19 11:01:00,48.4,31.1,30.13,ESE,115,5.0,5.0,51,0.00,,CLR,0.00,VWS V14.01,2013-11-19 17:01:00,
2013-11-19 11:06:00,48.3,31.0,30.12,ESE,122,3.0,7.0,51,0.00,,CLR,0.00,VWS V14.01,2013-11-19 17:06:00,
2013-11-19 11:11:00,48.5,31.7,30.13,East,88,1.0,7.0,52,0.00,,CLR,0.00,VWS V14.01,2013-11-19 17:11:00,
2013-11-19 11:16:00,49.1,31.8,30.12,ESE,113,4.0,7.0,51,0.00,,CLR,0.00,VWS V14.01,2013-11-19 17:16:00,
2013-11-19 11:21:00,49.6,31.7,30.12,ESE,116,4.0,7.0,50,0.00,,CLR,0.00,VWS V14.01,2013-11-19 17:21:00,
2013-11-19 11:27:00,49.5,32.1,30.12,SE,124,2.0,7.0,51,0.00,,CLR,0.00,VWS V14.01,2013-11-19 17:27:00,
2013-11-19 11:30:00,49.4,31.6,30.12,SE,143,1.0,7.0,50,0.00,,CLR,0.00,VWS V14.01,2013-11-19 17:30:00,
2013-11-19 11:32:00,49.3,32.0,30.12,SE,128,2.0,2.0,51,0.00,,CLR,0.00,VWS V14.01,2013-11-19 17:32:00,
2013-11-19 11:35:00,49.4,32.0,30.11,SE,130,2.0,6.0,51,0.00,,CLR,0.00,VWS V14.01,2013-11-19 17:35:00,
2013-11-19 11:40:00,49.4,31.6,30.11,SSE,160,2.0,6.0,50,0.00,,CLR,0.00,VWS V14.01,2013-11-19 17:40:00,
2013-11-19 11:45:00,49.4,32.0,30.11,SE,141,0.0,6.0,51,0.00,,CLR,0.00,VWS V14.01,2013-11-19 17:45:00,
2013-11-19 11:50:00,49.8,32.4,30.10,SE,136,1.0,6.0,51,0.00,,CLR,0.00,VWS V14.01,2013-11-19 17:50:00,
2013-11-19 11:56:00,50.6,32.7,30.10,ESE,115,1.0,6.0,50,0.00,,CLR,0.00,VWS V14.01,2013-11-19 17:56:00,
2013-11-19 12:00:00,51.1,32.6,30.10,ESE,113,1.0,6.0,49,0.00,,CLR,0.00,VWS V14.01,2013-11-19 18:00:00,
2013-11-19 12:01:00,51.2,32.2,30.10,ESE,102,3.0,3.0,48,0.00,,CLR,0.00,VWS V14.01,2013-11-19 18:01:00,
2013-11-19 12:06:00,51.4,31.9,30.09,SSE,151,3.0,5.0,47,0.00,,CLR,0.00,VWS V14.01,2013-11-19 18:06:00,
2013-11-19 12:11:00,51.8,32.2,30.09,ESE,111,1.0,6.0,47,0.00,,CLR,0.00,VWS V14.01,2013-11-19 18:11:00,
2013-11-19 12:16:00,52.0,31.9,30.09,South,176,1.0,6.0,46,0.00,,CLR,0.00,VWS V14.01,2013-11-19 18:16:00,
2013-11-19 12:21:00,52.4,32.2,30.08,ESE,121,3.0,7.0,46,0.00,,CLR,0.00,VWS V14.01,2013-11-19 18:21:00,
2013-11-19 12:26:00,53.0,32.2,30.07,ESE,108,0.0,7.0,45,0.00,,CLR,0.00,VWS V14.01,2013-11-19 18:26:00,
2013-11-19 12:30:00,53.3,33.1,30.08,East,86,3.0,7.0,46,0.00,,CLR,0.00,VWS V14.01,2013-11-19 18:30:00,
2013-11-19 12:31:00,53.6,32.2,30.07,ESE,117,2.0,8.0,44,0.00,,CLR,0.00,VWS V14.01,2013-11-19 18:31:00,
2013-11-19 12:36:00,53.5,31.6,30.07,SE,139,2.0,8.0,43,0.00,,CLR,0.00,VWS V14.01,2013-11-19 18:36:00,
2013-11-19 12:41:00,53.3,29.6,30.07,ESE,113,7.0,8.0,40,0.00,,CLR,0.00,VWS V14.01,2013-11-19 18:41:00,
2013-11-19 12:46:00,53.0,30.0,30.07,ESE,111,3.0,8.0,41,0.00,,CLR,0.00,VWS V14.01,2013-11-19 18:46:00,
2013-11-19 12:51:00,52.8,29.2,30.06,SE,125,2.0,8.0,40,0.00,,CLR,0.00,VWS V14.01,2013-11-19 18:51:00,
2013-11-19 12:57:00,53.1,29.4,30.06,SE,127,3.0,8.0,40,0.00,,CLR,0.00,VWS V14.01,2013-11-19 18:57:00,
2013-11-19 13:00:00,53.2,30.1,30.06,SE,140,3.0,8.0,41,0.00,,CLR,0.00,VWS V14.01,2013-11-19 19:00:00,
2013-11-19 13:02:00,53.4,30.3,30.06,ENE,65,3.0,6.0,41,0.00,,CLR,0.00,VWS V14.01,2013-11-19 19:02:00,
2013-11-19 13:05:00,53.7,30.0,30.06,ESE,117,3.0,8.0,40,0.00,,CLR,0.00,VWS V14.01,2013-11-19 19:05:00,
2013-11-19 13:10:00,54.0,29.6,30.06,SE,126,3.0,8.0,39,0.00,,CLR,0.00,VWS V14.01,2013-11-19 19:10:00,
2013-11-19 13:15:00,54.1,29.1,30.06,ESE,119,7.0,8.0,38,0.00,,CLR,0.00,VWS V14.01,2013-11-19 19:15:00,
2013-11-19 13:20:00,54.3,29.9,30.06,SE,129,4.0,8.0,39,0.00,,CLR,0.00,VWS V14.01,2013-11-19 19:20:00,
2013-11-19 13:25:00,54.4,29.3,30.05,SE,128,2.0,8.0,38,0.00,,CLR,0.00,VWS V14.01,2013-11-19 19:25:00,
2013-11-19 13:30:00,54.3,29.2,30.05,SE,129,2.0,4.0,38,0.00,,CLR,0.00,VWS V14.01,2013-11-19 19:30:00,
2013-11-19 13:35:00,54.4,30.0,30.05,ESE,109,1.0,7.0,39,0.00,,CLR,0.00,VWS V14.01,2013-11-19 19:35:00,
2013-11-19 13:40:00,54.4,30.0,30.05,ESE,111,5.0,8.0,39,0.00,,CLR,0.00,VWS V14.01,2013-11-19 19:40:00,
2013-11-19 13:46:00,54.7,29.6,30.04,East,85,1.0,8.0,38,0.00,,CLR,0.00,VWS V14.01,2013-11-19 19:46:00,
2013-11-19 13:51:00,54.8,30.3,30.04,SE,128,2.0,8.0,39,0.00,,CLR,0.00,VWS V14.01,2013-11-19 19:51:00,
2013-11-19 13:56:00,55.0,29.2,30.04,ESE,112,1.0,8.0,37,0.00,,CLR,0.00,VWS V14.01,2013-11-19 19:56:00,
2013-11-19 14:00:00,55.1,29.3,30.04,ENE,57,4.0,8.0,37,0.00,,CLR,0.00,VWS V14.01,2013-11-19 20:00:00,
2013-11-19 14:01:00,55.1,30.6,30.04,ESE,111,7.0,7.0,39,0.00,,CLR,0.00,VWS V14.01,2013-11-19 20:01:00,
2013-11-19 14:06:00,55.2,29.4,30.04,East,97,0.0,7.0,37,0.00,,CLR,0.00,VWS V14.01,2013-11-19 20:06:00,
2013-11-19 14:11:00,55.1,29.3,30.03,SE,134,0.0,7.0,37,0.00,,CLR,0.00,VWS V14.01,2013-11-19 20:11:00,
2013-11-19 14:16:00,55.1,30.0,30.03,ESE,123,3.0,7.0,38,0.00,,CLR,0.00,VWS V14.01,2013-11-19 20:16:00,
2013-11-19 14:21:00,55.2,30.1,30.03,SE,128,2.0,8.0,38,0.00,,CLR,0.00,VWS V14.01,2013-11-19 20:21:00,
2013-11-19 14:26:00,55.3,30.1,30.03,ESE,122,1.0,8.0,38,0.00,,CLR,0.00,VWS V14.01,2013-11-19 20:26:00,
2013-11-19 14:30:00,55.5,30.3,30.03,ESE,109,0.0,8.0,38,0.00,,CLR,0.00,VWS V14.01,2013-11-19 20:30:00,
2013-11-19 14:31:00,55.6,29.8,30.03,ESE,117,4.0,10.0,37,0.00,,CLR,0.00,VWS V14.01,2013-11-19 20:31:00,
2013-11-19 14:36:00,55.7,30.5,30.03,ESE,113,0.0,10.0,38,0.00,,CLR,0.00,VWS V14.01,2013-11-19 20:36:00,
2013-11-19 14:41:00,55.7,29.9,30.03,ESE,117,3.0,10.0,37,0.00,,CLR,0.00,VWS V14.01,2013-11-19 20:41:00,
2013-11-19 14:47:00,55.6,30.4,30.03,ESE,107,3.0,10.0,38,0.00,,CLR,0.00,VWS V14.01,2013-11-19 20:47:00,
2013-11-19 14:52:00,55.5,29.7,30.03,East,101,0.0,10.0,37,0.00,,CLR,0.00,VWS V14.01,2013-11-19 20:52:00,
2013-11-19 14:57:00,55.4,29.6,30.03,NE,53,2.0,10.0,37,0.00,,CLR,0.00,VWS V14.01,2013-11-19 20:57:00,
2013-11-19 15:00:00,55.4,28.9,30.03,East,86,6.0,10.0,36,0.00,,CLR,0.00,VWS V14.01,2013-11-19 21:00:00,
2013-11-19 15:02:00,55.4,30.2,30.03,SE,124,4.0,6.0,38,0.00,,CLR,0.00,VWS V14.01,2013-11-19 21:02:00,
2013-11-19 15:07:00,55.3,30.1,30.02,East,99,0.0,7.0,38,0.00,,CLR,0.00,VWS V14.01,2013-11-19 21:07:00,
2013-11-19 15:12:00,55.2,29.4,30.02,East,100,1.0,7.0,37,0.00,,CLR,0.00,VWS V14.01,2013-11-19 21:12:00,
2013-11-19 15:17:00,55.2,30.1,30.02,East,84,2.0,7.0,38,0.00,,CLR,0.00,VWS V14.01,2013-11-19 21:17:00,
2013-11-19 15:22:00,55.4,28.9,30.01,ESE,113,3.0,8.0,36,0.00,,CLR,0.00,VWS V14.01,2013-11-19 21:22:00,
2013-11-19 15:27:00,55.5,28.3,30.01,SSE,149,2.0,8.0,35,0.00,,CLR,0.00,VWS V14.01,2013-11-19 21:27:00,
2013-11-19 15:30:00,55.4,28.9,30.01,East,93,2.0,8.0,36,0.00,,CLR,0.00,VWS V14.01,2013-11-19 21:30:00,
2013-11-19 15:32:00,55.3,28.1,30.01,ESE,123,5.0,7.0,35,0.00,,CLR,0.00,VWS V14.01,2013-11-19 21:32:00,
2013-11-19 15:37:00,55.1,28.0,30.01,South,183,4.0,10.0,35,0.00,,CLR,0.00,VWS V14.01,2013-11-19 21:37:00,
2013-11-19 15:42:00,54.8,27.7,30.01,ESE,113,2.0,10.0,35,0.00,,CLR,0.00,VWS V14.01,2013-11-19 21:42:00,
2013-11-19 15:48:00,54.7,29.0,30.01,SE,130,2.0,10.0,37,0.00,,CLR,0.00,VWS V14.01,2013-11-19 21:48:00,
2013-11-19 15:53:00,54.5,28.8,30.00,SE,140,1.0,10.0,37,0.00,,CLR,0.00,VWS V14.01,2013-11-19 21:53:00,
2013-11-19 15:58:00,54.4,28.7,30.00,SSE,150,1.0,10.0,37,0.00,,CLR,0.00,VWS V14.01,2013-11-19 21:58:00,
2013-11-19 16:00:00,54.4,29.3,30.00,SE,126,3.0,10.0,38,0.00,,CLR,0.00,VWS V14.01,2013-11-19 22:00:00,
2013-11-19 16:03:00,54.2,27.9,30.00,South,170,6.0,9.0,36,0.00,,CLR,0.00,VWS V14.01,2013-11-19 22:03:00,
2013-11-19 16:08:00,54.0,29.0,30.00,South,190,2.0,9.0,38,0.00,,CLR,0.00,VWS V14.01,2013-11-19 22:08:00,
2013-11-19 16:13:00,53.7,27.4,30.00,SE,142,4.0,9.0,36,0.00,,CLR,0.00,VWS V14.01,2013-11-19 22:13:00,
2013-11-19 16:18:00,53.4,26.5,30.00,SE,144,1.0,9.0,35,0.00,,CLR,0.00,VWS V14.01,2013-11-19 22:18:00,
2013-11-19 16:23:00,53.1,26.2,30.01,SE,137,3.0,9.0,35,0.00,,CLR,0.00,VWS V14.01,2013-11-19 22:23:00,
2013-11-19 16:28:00,52.8,25.9,30.01,SE,129,1.0,9.0,35,0.00,,CLR,0.00,VWS V14.01,2013-11-19 22:28:00,
2013-11-19 16:30:00,52.7,25.8,30.01,ESE,116,2.0,9.0,35,0.00,,CLR,0.00,VWS V14.01,2013-11-19 22:30:00,
2013-11-19 16:33:00,52.4,26.2,30.01,SE,146,0.0,5.0,36,0.00,,CLR,0.00,VWS V14.01,2013-11-19 22:33:00,
2013-11-19 16:38:00,52.1,25.3,30.01,SE,129,2.0,6.0,35,0.00,,CLR,0.00,VWS V14.01,2013-11-19 22:38:00,
2013-11-19 16:43:00,51.9,26.5,30.01,ESE,114,0.0,6.0,37,0.00,,CLR,0.00,VWS V14.01,2013-11-19 22:43:00,
2013-11-19 16:49:00,51.7,26.3,30.01,SE,126,1.0,6.0,37,0.00,,CLR,0.00,VWS V14.01,2013-11-19 22:49:00,
2013-11-19 16:54:00,51.4,26.7,30.01,SSE,158,0.0,6.0,38,0.00,,CLR,0.00,VWS V14.01,2013-11-19 22:54:00,
2013-11-19 16:59:00,51.1,26.4,30.01,ESE,111,5.0,9.0,38,0.00,,CLR,0.00,VWS V14.01,2013-11-19 22:59:00,
2013-11-19 17:00:00,51.1,26.4,30.01,ESE,111,5.0,9.0,38,0.00,,CLR,0.00,VWS V14.01,2013-11-19 23:00:00,
2013-11-19 17:04:00,50.9,26.2,30.01,SE,138,1.0,5.0,38,0.00,,CLR,0.00,VWS V14.01,2013-11-19 23:04:00,
2013-11-19 17:09:00,50.6,26.6,30.00,SE,144,1.0,5.0,39,0.00,,CLR,0.00,VWS V14.01,2013-11-19 23:09:00,
2013-11-19 17:14:00,50.3,26.9,30.00,ESE,107,1.0,5.0,40,0.00,,CLR,0.00,VWS V14.01,2013-11-19 23:14:00,
2013-11-19 17:19:00,50.0,26.6,30.00,SE,126,2.0,5.0,40,0.00,,CLR,0.00,VWS V14.01,2013-11-19 23:19:00,
2013-11-19 17:24:00,49.7,27.0,30.01,ESE,121,2.0,5.0,41,0.00,,CLR,0.00,VWS V14.01,2013-11-19 23:24:00,
2013-11-19 17:29:00,49.4,26.7,30.00,ESE,109,0.0,2.0,41,0.00,,CLR,0.00,VWS V14.01,2013-11-19 23:29:00,
2013-11-19 17:30:00,49.4,26.7,30.01,ESE,122,2.0,5.0,41,0.00,,CLR,0.00,VWS V14.01,2013-11-19 23:30:00,
2013-11-19 17:34:00,49.2,27.1,30.00,ESE,119,2.0,5.0,42,0.00,,CLR,0.00,VWS V14.01,2013-11-19 23:34:00,
2013-11-19 17:39:00,49.0,26.9,30.00,ESE,107,1.0,5.0,42,0.00,,CLR,0.00,VWS V14.01,2013-11-19 23:39:00,
2013-11-19 17:44:00,48.7,27.8,30.00,ESE,118,1.0,5.0,44,0.00,,CLR,0.00,VWS V14.01,2013-11-19 23:44:00,
2013-11-19 17:50:00,48.3,27.4,30.00,ESE,115,0.0,5.0,44,0.00,,CLR,0.00,VWS V14.01,2013-11-19 23:50:00,
2013-11-19 17:55:00,47.9,27.6,30.00,ESE,115,1.0,5.0,45,0.00,,CLR,0.00,VWS V14.01,2013-11-19 23:55:00,
2013-11-19 18:00:00,47.6,27.3,29.99,ESE,109,0.0,2.0,45,0.00,,CLR,0.00,VWS V14.01,2013-11-20 00:00:00,
2013-11-19 18:05:00,47.4,27.7,30.00,SE,134,2.0,3.0,46,0.00,,CLR,0.00,VWS V14.01,2013-11-20 00:05:00,
2013-11-19 18:10:00,47.2,27.5,30.00,ESE,108,1.0,4.0,46,0.00,,CLR,0.00,VWS V14.01,2013-11-20 00:10:00,
2013-11-19 18:15:00,47.1,27.9,30.00,ESE,117,2.0,4.0,47,0.00,,CLR,0.00,VWS V14.01,2013-11-20 00:15:00,
2013-11-19 18:20:00,46.9,28.2,30.01,ESE,118,0.0,4.0,48,0.00,,CLR,0.00,VWS V14.01,2013-11-20 00:20:00,
2013-11-19 18:25:00,46.7,28.6,30.01,ESE,113,2.0,4.0,49,0.00,,CLR,0.00,VWS V14.01,2013-11-20 00:25:00,
2013-11-19 18:30:00,46.4,28.3,30.00,ESE,119,1.0,2.0,49,0.00,,CLR,0.00,VWS V14.01,2013-11-20 00:30:00,
2013-11-19 18:35:00,46.2,28.6,30.00,ESE,119,1.0,2.0,50,0.00,,CLR,0.00,VWS V14.01,2013-11-20 00:35:00,
2013-11-19 18:40:00,46.0,28.4,30.00,SE,134,0.0,3.0,50,0.00,,CLR,0.00,VWS V14.01,2013-11-20 00:40:00,
2013-11-19 18:45:00,45.9,28.3,30.00,SE,137,4.0,4.0,50,0.00,,CLR,0.00,VWS V14.01,2013-11-20 00:45:00,
2013-11-19 18:51:00,46.0,28.4,30.00,SE,130,1.0,4.0,50,0.00,,CLR,0.00,VWS V14.01,2013-11-20 00:51:00,
2013-11-19 18:56:00,45.9,28.8,30.00,SE,128,1.0,4.0,51,0.00,,CLR,0.00,VWS V14.01,2013-11-20 00:56:00,
2013-11-19 19:00:00,45.9,28.3,30.00,ESE,111,3.0,4.0,50,0.00,,CLR,0.00,VWS V14.01,2013-11-20 01:00:00,
2013-11-19 19:01:00,45.9,27.8,30.00,SE,124,1.0,3.0,49,0.00,,CLR,0.00,VWS V14.01,2013-11-20 01:01:00,
2013-11-19 19:06:00,45.9,27.8,30.00,ESE,122,7.0,7.0,49,0.00,,CLR,0.00,VWS V14.01,2013-11-20 01:06:00,
2013-11-19 19:11:00,45.9,27.3,30.00,SE,128,2.0,7.0,48,0.00,,CLR,0.00,VWS V14.01,2013-11-20 01:11:00,
2013-11-19 19:16:00,45.8,27.7,30.00,SE,138,2.0,7.0,49,0.00,,CLR,0.00,VWS V14.01,2013-11-20 01:16:00,
2013-11-19 19:21:00,45.6,27.6,30.00,SE,135,0.0,7.0,49,0.00,,CLR,0.00,VWS V14.01,2013-11-20 01:21:00,
2013-11-19 19:26:00,45.5,27.5,30.00,SE,133,2.0,7.0,49,0.00,,CLR,0.00,VWS V14.01,2013-11-20 01:26:00,
2013-11-19 19:30:00,45.4,27.9,30.00,SE,142,2.0,7.0,50,0.00,,CLR,0.00,VWS V14.01,2013-11-20 01:30:00,
2013-11-19 19:31:00,45.3,27.3,29.99,SE,131,2.0,3.0,49,0.00,,CLR,0.00,VWS V14.01,2013-11-20 01:31:00,
2013-11-19 19:36:00,45.3,27.3,30.00,ESE,116,1.0,9.0,49,0.00,,CLR,0.00,VWS V14.01,2013-11-20 01:36:00,
2013-11-19 19:41:00,45.3,27.8,30.00,SSE,147,3.0,9.0,50,0.00,,CLR,0.00,VWS V14.01,2013-11-20 01:41:00,
2013-11-19 19:47:00,45.2,27.7,30.00,SE,125,1.0,9.0,50,0.00,,CLR,0.00,VWS V14.01,2013-11-20 01:47:00,
2013-11-19 19:52:00,45.1,27.6,30.00,SE,141,0.0,9.0,50,0.00,,CLR,0.00,VWS V14.01,2013-11-20 01:52:00,
2013-11-19 19:57:00,45.0,28.0,30.00,SSE,150,4.0,9.0,51,0.00,,CLR,0.00,VWS V14.01,2013-11-20 01:57:00,
2013-11-19 20:00:00,44.9,27.9,30.00,SE,134,0.0,9.0,51,0.00,,CLR,0.00,VWS V14.01,2013-11-20 02:00:00,
2013-11-19 20:02:00,44.8,27.8,30.00,SSE,158,0.0,2.0,51,0.00,,CLR,0.00,VWS V14.01,2013-11-20 02:02:00,
2013-11-19 20:07:00,44.6,28.1,30.00,ESE,123,0.0,2.0,52,0.00,,CLR,0.00,VWS V14.01,2013-11-20 02:07:00,
2013-11-19 20:12:00,44.4,27.9,30.00,ESE,117,1.0,4.0,52,0.00,,CLR,0.00,VWS V14.01,2013-11-20 02:12:00,
2013-11-19 20:17:00,44.2,27.7,30.00,ESE,115,3.0,5.0,52,0.00,,CLR,0.00,VWS V14.01,2013-11-20 02:17:00,
2013-11-19 20:22:00,44.1,28.1,29.99,ESE,108,3.0,5.0,53,0.00,,CLR,0.00,VWS V14.01,2013-11-20 02:22:00,
2013-11-19 20:27:00,43.9,28.4,29.99,SE,128,3.0,7.0,54,0.00,,CLR,0.00,VWS V14.01,2013-11-20 02:27:00,
2013-11-19 20:30:00,43.8,27.8,29.99,ESE,113,2.0,7.0,53,0.00,,CLR,0.00,VWS V14.01,2013-11-20 02:30:00,
2013-11-19 20:32:00,43.7,28.2,30.00,ESE,123,2.0,3.0,54,0.00,,CLR,0.00,VWS V14.01,2013-11-20 02:32:00,
2013-11-19 20:37:00,43.4,27.9,30.00,ESE,117,2.0,3.0,54,0.00,,CLR,0.00,VWS V14.01,2013-11-20 02:37:00,
2013-11-19 20:42:00,43.3,28.2,30.00,ESE,121,1.0,5.0,55,0.00,,CLR,0.00,VWS V14.01,2013-11-20 02:42:00,
2013-11-19 20:48:00,43.1,28.0,29.99,ESE,117,0.0,5.0,55,0.00,,CLR,0.00,VWS V14.01,2013-11-20 02:48:00,
2013-11-19 20:53:00,42.9,28.3,29.99,ESE,119,2.0,5.0,56,0.00,,CLR,0.00,VWS V14.01,2013-11-20 02:53:00,
2013-11-19 20:58:00,42.7,28.1,29.99,ESE,117,0.0,5.0,56,0.00,,CLR,0.00,VWS V14.01,2013-11-20 02:58:00,
2013-11-19 21:00:00,42.6,28.0,29.99,East,100,1.0,5.0,56,0.00,,CLR,0.00,VWS V14.01,2013-11-20 03:00:00,
2013-11-19 21:03:00,42.5,28.8,29.99,SE,131,3.0,5.0,58,0.00,,CLR,0.00,VWS V14.01,2013-11-20 03:03:00,
2013-11-19 21:08:00,42.4,28.7,29.98,ESE,123,2.0,6.0,58,0.00,,CLR,0.00,VWS V14.01,2013-11-20 03:08:00,
2013-11-19 21:13:00,42.6,28.9,29.99,ESE,113,1.0,6.0,58,0.00,,CLR,0.00,VWS V14.01,2013-11-20 03:13:00,
2013-11-19 21:18:00,42.7,28.5,29.99,ESE,115,0.0,6.0,57,0.00,,CLR,0.00,VWS V14.01,2013-11-20 03:18:00,
2013-11-19 21:23:00,42.8,29.1,29.99,ESE,121,3.0,6.0,58,0.00,,CLR,0.00,VWS V14.01,2013-11-20 03:23:00,
2013-11-19 21:28:00,42.7,29.4,29.99,ESE,116,1.0,8.0,59,0.00,,CLR,0.00,VWS V14.01,2013-11-20 03:28:00,
2013-11-19 21:30:00,42.7,29.4,29.99,ESE,117,1.0,8.0,59,0.00,,CLR,0.00,VWS V14.01,2013-11-20 03:30:00,
2013-11-19 21:33:00,42.7,29.4,29.99,ESE,114,1.0,7.0,59,0.00,,CLR,0.00,VWS V14.01,2013-11-20 03:33:00,
2013-11-19 21:38:00,42.5,29.6,29.99,SE,128,5.0,7.0,60,0.00,,CLR,0.00,VWS V14.01,2013-11-20 03:38:00,
2013-11-19 21:43:00,42.5,29.6,29.98,ESE,115,7.0,9.0,60,0.00,,CLR,0.00,VWS V14.01,2013-11-20 03:43:00,
2013-11-19 21:49:00,42.4,30.3,29.98,SE,124,3.0,9.0,62,0.00,,CLR,0.00,VWS V14.01,2013-11-20 03:49:00,
2013-11-19 21:54:00,42.3,30.2,29.98,ESE,121,2.0,9.0,62,0.00,,CLR,0.00,VWS V14.01,2013-11-20 03:54:00,
2013-11-19 21:59:00,42.3,30.2,29.99,ESE,121,2.0,4.0,62,0.00,,CLR,0.00,VWS V14.01,2013-11-20 03:59:00,
2013-11-19 22:00:00,42.3,30.2,29.99,SSE,147,4.0,9.0,62,0.00,,CLR,0.00,VWS V14.01,2013-11-20 04:00:00,
2013-11-19 22:04:00,42.2,29.7,29.99,ESE,115,3.0,4.0,61,0.00,,CLR,0.00,VWS V14.01,2013-11-20 04:04:00,
2013-11-19 22:09:00,42.1,30.0,29.99,SSE,155,0.0,4.0,62,0.00,,CLR,0.00,VWS V14.01,2013-11-20 04:09:00,
2013-11-19 22:15:00,41.9,29.9,29.99,SE,128,2.0,4.0,62,0.00,,SCT110,0.00,VWS V14.01,2013-11-20 04:15:00,
2013-11-19 22:20:00,41.8,29.8,29.99,SE,128,0.0,4.0,62,0.00,,SCT110,0.00,VWS V14.01,2013-11-20 04:20:00,
2013-11-19 22:25:00,41.7,29.7,30.00,ESE,109,3.0,4.0,62,0.00,,SCT110,0.00,VWS V14.01,2013-11-20 04:25:00,
2013-11-19 22:30:00,41.6,29.2,30.00,SE,134,0.0,4.0,61,0.00,,SCT110,0.00,VWS V14.01,2013-11-20 04:30:00,
2013-11-19 22:35:00,41.6,29.2,30.00,SE,144,2.0,7.0,61,0.00,,SCT110,0.00,VWS V14.01,2013-11-20 04:35:00,
2013-11-19 22:40:00,41.6,29.2,30.00,ESE,117,2.0,7.0,61,0.00,,CLR,0.00,VWS V14.01,2013-11-20 04:40:00,
2013-11-19 22:45:00,41.5,29.1,29.99,ESE,119,2.0,7.0,61,0.00,,CLR,0.00,VWS V14.01,2013-11-20 04:45:00,
2013-11-19 22:50:00,41.4,29.0,29.99,SE,125,0.0,7.0,61,0.00,,CLR,0.00,VWS V14.01,2013-11-20 04:50:00,
2013-11-19 22:55:00,41.2,29.2,29.99,ESE,123,1.0,7.0,62,0.00,,CLR,0.00,VWS V14.01,2013-11-20 04:55:00,
2013-11-19 23:00:00,41.0,29.0,29.99,SE,132,1.0,2.0,62,0.00,,CLR,0.00,VWS V14.01,2013-11-20 05:00:00,
2013-11-19 23:01:00,41.0,29.0,29.99,SE,132,0.0,2.0,62,0.00,,CLR,0.00,VWS V14.01,2013-11-20 05:01:00,
2013-11-19 23:02:00,41.0,29.0,29.99,SE,131,1.0,2.0,62,0.00,,CLR,0.00,VWS V14.01,2013-11-20 05:02:00,
2013-11-19 23:03:00,40.9,28.9,29.99,ESE,115,1.0,2.0,62,0.00,,CLR,0.00,VWS V14.01,2013-11-20 05:03:00,
2013-11-19 23:08:00,40.8,29.2,29.99,ESE,112,1.0,5.0,63,0.00,,CLR,0.00,VWS V14.01,2013-11-20 05:08:00,
2013-11-19 23:14:00,40.7,29.1,29.99,SE,134,2.0,5.0,63,0.00,,CLR,0.00,VWS V14.01,2013-11-20 05:14:00,
2013-11-19 23:19:00,40.7,29.1,29.99,ESE,109,3.0,5.0,63,0.00,,CLR,0.00,VWS V14.01,2013-11-20 05:19:00,
2013-11-19 23:24:00,40.8,29.6,29.99,ESE,118,3.0,5.0,64,0.00,,CLR,0.00,VWS V14.01,2013-11-20 05:24:00,
2013-11-19 23:29:00,40.9,29.3,29.99,ESE,123,1.0,5.0,63,0.00,,CLR,0.00,VWS V14.01,2013-11-20 05:29:00,
2013-11-19 23:30:00,40.9,29.3,29.99,ESE,123,1.0,5.0,63,0.00,,CLR,0.00,VWS V14.01,2013-11-20 05:30:00,
2013-11-19 23:34:00,41.0,29.0,29.99,ESE,120,0.0,6.0,62,0.00,,CLR,0.00,VWS V14.01,2013-11-20 05:34:00,
2013-11-19 23:39:00,41.0,29.0,29.99,South,171,2.0,6.0,62,0.00,,CLR,0.00,VWS V14.01,2013-11-20 05:39:00,
2013-11-19 23:44:00,40.9,28.9,29.99,East,101,2.0,6.0,62,0.00,,BKN085,0.00,VWS V14.01,2013-11-20 05:44:00,
2013-11-19 23:49:00,40.7,28.7,29.99,ESE,119,1.0,6.0,62,0.00,,BKN085,0.00,VWS V14.01,2013-11-20 05:49:00,
2013-11-19 23:54:00,40.7,28.7,29.99,SE,132,1.0,9.0,62,0.00,,BKN085,0.00,VWS V14.01,2013-11-20 05:54:00,
2013-11-19 23:59:00,40.6,28.6,29.99,SE,134,0.0,2.0,62,0.00,,BKN085,0.00,VWS V14.01,2013-11-20 05:59:00,